<?xml version="1.0" encoding="UTF-8" standalone="no" ?>
<gpx xmlns="http://www.topografix.com/GPX/1/1" xmlns:xsi="http://www.w3.org/2001/XMLSchema-instance" xsi:schemaLocation="http://www.topografix.com/GPX/1/1 http://www.topografix.com/GPX/1/1/gpx.xsd" version="1.1" creator="VisuGPX - https://www.visugpx.com">
  <metadata>
    <name>Plateau de Saint-Barnabé, 8 par Courmes et Vence</name>
    <desc><![CDATA[Des singles ébouriffants dans les préalpes calcaires de Grasse.]]></desc>
  </metadata>
  <trk>
    <name><![CDATA[ACTIVE LOG 006]]></name>
    <trkseg>
      <trkpt lat="43.72391" lon="7.10469">
        <ele>331</ele>
      </trkpt>
      <trkpt lat="43.72406" lon="7.10592">
        <ele>327.203125</ele>
      </trkpt>
      <trkpt lat="43.72433" lon="7.10676">
        <ele>324.1289063</ele>
      </trkpt>
      <trkpt lat="43.72464" lon="7.10704">
        <ele>318.1328125</ele>
      </trkpt>
      <trkpt lat="43.72532" lon="7.10545">
        <ele>332.2773438</ele>
      </trkpt>
      <trkpt lat="43.72598" lon="7.10454">
        <ele>340.8085938</ele>
      </trkpt>
      <trkpt lat="43.7268" lon="7.10397">
        <ele>350.34375</ele>
      </trkpt>
      <trkpt lat="43.72815" lon="7.10323">
        <ele>362.4375</ele>
      </trkpt>
      <trkpt lat="43.72887" lon="7.10311">
        <ele>367.3125</ele>
      </trkpt>
      <trkpt lat="43.7298" lon="7.10309">
        <ele>364.921875</ele>
      </trkpt>
      <trkpt lat="43.73025" lon="7.10278">
        <ele>372.7539063</ele>
      </trkpt>
      <trkpt lat="43.73172" lon="7.10262">
        <ele>393.9414063</ele>
      </trkpt>
      <trkpt lat="43.73247" lon="7.10347">
        <ele>406.4140625</ele>
      </trkpt>
      <trkpt lat="43.73243" lon="7.10372">
        <ele>408.9414063</ele>
      </trkpt>
      <trkpt lat="43.73204" lon="7.10393">
        <ele>410.359375</ele>
      </trkpt>
      <trkpt lat="43.73104" lon="7.10469">
        <ele>420.7382813</ele>
      </trkpt>
      <trkpt lat="43.73033" lon="7.10586">
        <ele>434.0820313</ele>
      </trkpt>
      <trkpt lat="43.73002" lon="7.10681">
        <ele>429.0820313</ele>
      </trkpt>
      <trkpt lat="43.7297" lon="7.10862">
        <ele>436.6289063</ele>
      </trkpt>
      <trkpt lat="43.73007" lon="7.11092">
        <ele>438.3242188</ele>
      </trkpt>
      <trkpt lat="43.73021" lon="7.11101">
        <ele>440.2773438</ele>
      </trkpt>
      <trkpt lat="43.73023" lon="7.11033">
        <ele>448.0078125</ele>
      </trkpt>
      <trkpt lat="43.73025" lon="7.10931">
        <ele>452.9492188</ele>
      </trkpt>
      <trkpt lat="43.73009" lon="7.10865">
        <ele>451.1523438</ele>
      </trkpt>
      <trkpt lat="43.73017" lon="7.10828">
        <ele>452.015625</ele>
      </trkpt>
      <trkpt lat="43.73223" lon="7.10619">
        <ele>469.0195313</ele>
      </trkpt>
      <trkpt lat="43.73375" lon="7.10556">
        <ele>489.1992188</ele>
      </trkpt>
      <trkpt lat="43.73464" lon="7.10502">
        <ele>486.2734375</ele>
      </trkpt>
      <trkpt lat="43.73514" lon="7.10497">
        <ele>482.625</ele>
      </trkpt>
      <trkpt lat="43.73688" lon="7.10536">
        <ele>500.4804688</ele>
      </trkpt>
      <trkpt lat="43.73742" lon="7.10522">
        <ele>503.96875</ele>
      </trkpt>
      <trkpt lat="43.7386" lon="7.10551">
        <ele>510.4648438</ele>
      </trkpt>
      <trkpt lat="43.7412" lon="7.10541">
        <ele>537.6367188</ele>
      </trkpt>
      <trkpt lat="43.74252" lon="7.10461">
        <ele>556.953125</ele>
      </trkpt>
      <trkpt lat="43.74325" lon="7.10393">
        <ele>560.4726563</ele>
      </trkpt>
      <trkpt lat="43.7438" lon="7.1037">
        <ele>571.4882813</ele>
      </trkpt>
      <trkpt lat="43.74415" lon="7.10311">
        <ele>569.9492188</ele>
      </trkpt>
      <trkpt lat="43.74634" lon="7.10107">
        <ele>591.0742188</ele>
      </trkpt>
      <trkpt lat="43.74715" lon="7.09855">
        <ele>607.8046875</ele>
      </trkpt>
      <trkpt lat="43.74878" lon="7.09628">
        <ele>628.1757813</ele>
      </trkpt>
      <trkpt lat="43.75002" lon="7.09553">
        <ele>633.90625</ele>
      </trkpt>
      <trkpt lat="43.75023" lon="7.09559">
        <ele>637.9609375</ele>
      </trkpt>
      <trkpt lat="43.75022" lon="7.09581">
        <ele>643.1796875</ele>
      </trkpt>
      <trkpt lat="43.74919" lon="7.09646">
        <ele>644.078125</ele>
      </trkpt>
      <trkpt lat="43.74927" lon="7.09663">
        <ele>651.0195313</ele>
      </trkpt>
      <trkpt lat="43.7498" lon="7.09623">
        <ele>649.5117188</ele>
      </trkpt>
      <trkpt lat="43.75054" lon="7.09609">
        <ele>657.859375</ele>
      </trkpt>
      <trkpt lat="43.75161" lon="7.09577">
        <ele>664.0351563</ele>
      </trkpt>
      <trkpt lat="43.75173" lon="7.09543">
        <ele>663.6640625</ele>
      </trkpt>
      <trkpt lat="43.75224" lon="7.09479">
        <ele>667.6484375</ele>
      </trkpt>
      <trkpt lat="43.75346" lon="7.09442">
        <ele>685.390625</ele>
      </trkpt>
      <trkpt lat="43.75408" lon="7.09398">
        <ele>692.0195313</ele>
      </trkpt>
      <trkpt lat="43.75449" lon="7.09296">
        <ele>697.5976563</ele>
      </trkpt>
      <trkpt lat="43.75373" lon="7.09336">
        <ele>680.9882813</ele>
      </trkpt>
      <trkpt lat="43.75309" lon="7.09312">
        <ele>686.7148438</ele>
      </trkpt>
      <trkpt lat="43.75268" lon="7.09258">
        <ele>675.4633789</ele>
        <time>2012-01-21T09:16:06Z</time>
      </trkpt>
      <trkpt lat="43.7527" lon="7.09258">
        <ele>685.0769043</ele>
        <time>2012-01-21T09:21:25Z</time>
      </trkpt>
      <trkpt lat="43.75264" lon="7.09043">
        <ele>697.5737305</ele>
        <time>2012-01-21T09:22:38Z</time>
      </trkpt>
      <trkpt lat="43.7525" lon="7.08978">
        <ele>700.9384766</ele>
        <time>2012-01-21T09:22:59Z</time>
      </trkpt>
      <trkpt lat="43.75268" lon="7.08984">
        <ele>702.3803711</ele>
        <time>2012-01-21T09:23:09Z</time>
      </trkpt>
      <trkpt lat="43.7528" lon="7.09033">
        <ele>705.7451172</ele>
        <time>2012-01-21T09:23:24Z</time>
      </trkpt>
      <trkpt lat="43.753" lon="7.09083">
        <ele>708.6289063</ele>
        <time>2012-01-21T09:23:42Z</time>
      </trkpt>
      <trkpt lat="43.75366" lon="7.0912">
        <ele>714.8774414</ele>
        <time>2012-01-21T09:24:16Z</time>
      </trkpt>
      <trkpt lat="43.75421" lon="7.0904">
        <ele>721.6066895</ele>
        <time>2012-01-21T09:24:53Z</time>
      </trkpt>
      <trkpt lat="43.75471" lon="7.08891">
        <ele>731.2199707</ele>
        <time>2012-01-21T09:25:48Z</time>
      </trkpt>
      <trkpt lat="43.75486" lon="7.08828">
        <ele>734.1040039</ele>
        <time>2012-01-21T09:26:11Z</time>
      </trkpt>
      <trkpt lat="43.7551" lon="7.08796">
        <ele>737.9492188</ele>
        <time>2012-01-21T09:26:29Z</time>
      </trkpt>
      <trkpt lat="43.75548" lon="7.08805">
        <ele>741.3137207</ele>
        <time>2012-01-21T09:26:46Z</time>
      </trkpt>
      <trkpt lat="43.75612" lon="7.08743">
        <ele>748.0432129</ele>
        <time>2012-01-21T09:27:24Z</time>
      </trkpt>
      <trkpt lat="43.75648" lon="7.08603">
        <ele>757.65625</ele>
        <time>2012-01-21T09:28:18Z</time>
      </trkpt>
      <trkpt lat="43.75739" lon="7.0857">
        <ele>766.3081055</ele>
        <time>2012-01-21T09:29:18Z</time>
      </trkpt>
      <trkpt lat="43.75753" lon="7.08613">
        <ele>769.1921387</ele>
        <time>2012-01-21T09:29:36Z</time>
      </trkpt>
      <trkpt lat="43.75781" lon="7.08645">
        <ele>772.5566406</ele>
        <time>2012-01-21T09:29:53Z</time>
      </trkpt>
      <trkpt lat="43.75819" lon="7.08663">
        <ele>775.9211426</ele>
        <time>2012-01-21T09:30:12Z</time>
      </trkpt>
      <trkpt lat="43.75896" lon="7.08678">
        <ele>782.6506348</ele>
        <time>2012-01-21T09:30:50Z</time>
      </trkpt>
      <trkpt lat="43.75931" lon="7.08654">
        <ele>784.5732422</ele>
        <time>2012-01-21T09:31:08Z</time>
      </trkpt>
      <trkpt lat="43.75976" lon="7.08597">
        <ele>787.9377441</ele>
        <time>2012-01-21T09:31:29Z</time>
      </trkpt>
      <trkpt lat="43.76046" lon="7.08475">
        <ele>796.5898438</ele>
        <time>2012-01-21T09:32:15Z</time>
      </trkpt>
      <trkpt lat="43.7606" lon="7.08419">
        <ele>799.4736328</ele>
        <time>2012-01-21T09:32:34Z</time>
      </trkpt>
      <trkpt lat="43.76088" lon="7.08399">
        <ele>801.8769531</ele>
        <time>2012-01-21T09:32:51Z</time>
      </trkpt>
      <trkpt lat="43.76143" lon="7.0848">
        <ele>809.0866699</ele>
        <time>2012-01-21T09:33:30Z</time>
      </trkpt>
      <trkpt lat="43.76258" lon="7.08549">
        <ele>818.6999512</ele>
        <time>2012-01-21T09:34:28Z</time>
      </trkpt>
      <trkpt lat="43.7634" lon="7.08512">
        <ele>824.9484863</ele>
        <time>2012-01-21T09:35:10Z</time>
      </trkpt>
      <trkpt lat="43.7632" lon="7.08481">
        <ele>826.3903809</ele>
        <time>2012-01-21T09:35:24Z</time>
      </trkpt>
      <trkpt lat="43.76232" lon="7.08411">
        <ele>833.1196289</ele>
        <time>2012-01-21T09:36:08Z</time>
      </trkpt>
      <trkpt lat="43.76203" lon="7.0837">
        <ele>836.484375</ele>
        <time>2012-01-21T09:36:27Z</time>
      </trkpt>
      <trkpt lat="43.76153" lon="7.08246">
        <ele>844.1750488</ele>
        <time>2012-01-21T09:37:17Z</time>
      </trkpt>
      <trkpt lat="43.7607" lon="7.08141">
        <ele>853.7880859</ele>
        <time>2012-01-21T09:38:18Z</time>
      </trkpt>
      <trkpt lat="43.75991" lon="7.08184">
        <ele>860.0366211</ele>
        <time>2012-01-21T09:39:01Z</time>
      </trkpt>
      <trkpt lat="43.75916" lon="7.08191">
        <ele>866.7658691</ele>
        <time>2012-01-21T09:39:37Z</time>
      </trkpt>
      <trkpt lat="43.75706" lon="7.08033">
        <ele>885.5114746</ele>
        <time>2012-01-21T09:41:33Z</time>
      </trkpt>
      <trkpt lat="43.75686" lon="7.0798">
        <ele>888.8762207</ele>
        <time>2012-01-21T09:41:54Z</time>
      </trkpt>
      <trkpt lat="43.75677" lon="7.07749">
        <ele>902.3344727</ele>
        <time>2012-01-21T09:43:14Z</time>
      </trkpt>
      <trkpt lat="43.75713" lon="7.07637">
        <ele>908.583252</ele>
        <time>2012-01-21T09:43:58Z</time>
      </trkpt>
      <trkpt lat="43.75719" lon="7.07458">
        <ele>917.7155762</ele>
        <time>2012-01-21T09:44:58Z</time>
      </trkpt>
      <trkpt lat="43.75743" lon="7.07469">
        <ele>918.677002</ele>
        <time>2012-01-21T09:45:10Z</time>
      </trkpt>
      <trkpt lat="43.75803" lon="7.0768">
        <ele>932.135498</ele>
        <time>2012-01-21T09:46:25Z</time>
      </trkpt>
      <trkpt lat="43.75842" lon="7.07701">
        <ele>935.5</ele>
        <time>2012-01-21T09:46:44Z</time>
      </trkpt>
      <trkpt lat="43.75883" lon="7.07696">
        <ele>938.3840332</ele>
        <time>2012-01-21T09:47:05Z</time>
      </trkpt>
      <trkpt lat="43.7598" lon="7.07564">
        <ele>947.5166016</ele>
        <time>2012-01-21T09:48:04Z</time>
      </trkpt>
      <trkpt lat="43.76011" lon="7.07551">
        <ele>950.4006348</ele>
        <time>2012-01-21T09:48:18Z</time>
      </trkpt>
      <trkpt lat="43.76082" lon="7.07507">
        <ele>955.6877441</ele>
        <time>2012-01-21T09:51:44Z</time>
      </trkpt>
      <trkpt lat="43.76151" lon="7.07417">
        <ele>955.6877441</ele>
        <time>2012-01-21T09:52:14Z</time>
      </trkpt>
      <trkpt lat="43.76205" lon="7.07293">
        <ele>949.9199219</ele>
        <time>2012-01-21T09:52:27Z</time>
      </trkpt>
      <trkpt lat="43.763" lon="7.07186">
        <ele>946.5554199</ele>
        <time>2012-01-21T09:52:42Z</time>
      </trkpt>
      <trkpt lat="43.76393" lon="7.07135">
        <ele>942.7102051</ele>
        <time>2012-01-21T09:52:54Z</time>
      </trkpt>
      <trkpt lat="43.76512" lon="7.07069">
        <ele>933.5773926</ele>
        <time>2012-01-21T09:53:08Z</time>
      </trkpt>
      <trkpt lat="43.76524" lon="7.06996">
        <ele>932.6162109</ele>
        <time>2012-01-21T09:53:19Z</time>
      </trkpt>
      <trkpt lat="43.76491" lon="7.06925">
        <ele>933.0966797</ele>
        <time>2012-01-21T09:53:32Z</time>
      </trkpt>
      <trkpt lat="43.76422" lon="7.06905">
        <ele>934.5388184</ele>
        <time>2012-01-21T09:53:48Z</time>
      </trkpt>
      <trkpt lat="43.76406" lon="7.06877">
        <ele>935.0195313</ele>
        <time>2012-01-21T09:53:54Z</time>
      </trkpt>
      <trkpt lat="43.76376" lon="7.06722">
        <ele>937.4226074</ele>
        <time>2012-01-21T09:54:23Z</time>
      </trkpt>
      <trkpt lat="43.76355" lon="7.06686">
        <ele>938.3840332</ele>
        <time>2012-01-21T09:54:32Z</time>
      </trkpt>
      <trkpt lat="43.76302" lon="7.06623">
        <ele>938.8647461</ele>
        <time>2012-01-21T09:54:49Z</time>
      </trkpt>
      <trkpt lat="43.76263" lon="7.06501">
        <ele>940.3068848</ele>
        <time>2012-01-21T09:55:11Z</time>
      </trkpt>
      <trkpt lat="43.76221" lon="7.06445">
        <ele>941.2680664</ele>
        <time>2012-01-21T09:55:25Z</time>
      </trkpt>
      <trkpt lat="43.76209" lon="7.06408">
        <ele>941.2680664</ele>
        <time>2012-01-21T09:55:32Z</time>
      </trkpt>
      <trkpt lat="43.76162" lon="7.06361">
        <ele>942.2294922</ele>
        <time>2012-01-21T09:55:46Z</time>
      </trkpt>
      <trkpt lat="43.76151" lon="7.06326">
        <ele>942.2294922</ele>
        <time>2012-01-21T09:55:53Z</time>
      </trkpt>
      <trkpt lat="43.76158" lon="7.06203">
        <ele>943.6713867</ele>
        <time>2012-01-21T09:56:15Z</time>
      </trkpt>
      <trkpt lat="43.76229" lon="7.06107">
        <ele>944.6325684</ele>
        <time>2012-01-21T09:56:40Z</time>
      </trkpt>
      <trkpt lat="43.76236" lon="7.06033">
        <ele>945.5939941</ele>
        <time>2012-01-21T09:56:53Z</time>
      </trkpt>
      <trkpt lat="43.76244" lon="7.0602">
        <ele>945.5939941</ele>
        <time>2012-01-21T09:56:56Z</time>
      </trkpt>
      <trkpt lat="43.76231" lon="7.05843">
        <ele>947.5166016</ele>
        <time>2012-01-21T09:58:45Z</time>
      </trkpt>
      <trkpt lat="43.76254" lon="7.05816">
        <ele>947.9973145</ele>
        <time>2012-01-21T09:58:53Z</time>
      </trkpt>
      <trkpt lat="43.76252" lon="7.05785">
        <ele>947.9973145</ele>
        <time>2012-01-21T09:59:00Z</time>
      </trkpt>
      <trkpt lat="43.76223" lon="7.05686">
        <ele>949.9199219</ele>
        <time>2012-01-21T09:59:20Z</time>
      </trkpt>
      <trkpt lat="43.76249" lon="7.05592">
        <ele>950.4006348</ele>
        <time>2012-01-21T09:59:38Z</time>
      </trkpt>
      <trkpt lat="43.7622" lon="7.055">
        <ele>952.322998</ele>
        <time>2012-01-21T09:59:57Z</time>
      </trkpt>
      <trkpt lat="43.76172" lon="7.05355">
        <ele>951.3618164</ele>
        <time>2012-01-21T10:00:21Z</time>
      </trkpt>
      <trkpt lat="43.76049" lon="7.05163">
        <ele>958.0913086</ele>
        <time>2012-01-21T10:01:14Z</time>
      </trkpt>
      <trkpt lat="43.76071" lon="7.05118">
        <ele>959.0524902</ele>
        <time>2012-01-21T10:01:25Z</time>
      </trkpt>
      <trkpt lat="43.76055" lon="7.05088">
        <ele>959.0524902</ele>
        <time>2012-01-21T10:01:32Z</time>
      </trkpt>
      <trkpt lat="43.76033" lon="7.05087">
        <ele>959.5332031</ele>
        <time>2012-01-21T10:01:39Z</time>
      </trkpt>
      <trkpt lat="43.76002" lon="7.05065">
        <ele>959.5332031</ele>
        <time>2012-01-21T10:01:48Z</time>
      </trkpt>
      <trkpt lat="43.76013" lon="7.04983">
        <ele>960.9750977</ele>
        <time>2012-01-21T10:02:04Z</time>
      </trkpt>
      <trkpt lat="43.76003" lon="7.04949">
        <ele>960.9750977</ele>
        <time>2012-01-21T10:02:11Z</time>
      </trkpt>
      <trkpt lat="43.75925" lon="7.04784">
        <ele>963.8588867</ele>
        <time>2012-01-21T10:02:49Z</time>
      </trkpt>
      <trkpt lat="43.7587" lon="7.0472">
        <ele>965.3010254</ele>
        <time>2012-01-21T10:03:08Z</time>
      </trkpt>
      <trkpt lat="43.75828" lon="7.04627">
        <ele>966.262207</ele>
        <time>2012-01-21T10:03:31Z</time>
      </trkpt>
      <trkpt lat="43.75755" lon="7.04587">
        <ele>967.2236328</ele>
        <time>2012-01-21T10:03:55Z</time>
      </trkpt>
      <trkpt lat="43.75763" lon="7.04503">
        <ele>967.7041016</ele>
        <time>2012-01-21T10:04:13Z</time>
      </trkpt>
      <trkpt lat="43.75861" lon="7.04382">
        <ele>966.262207</ele>
        <time>2012-01-21T10:04:46Z</time>
      </trkpt>
      <trkpt lat="43.75954" lon="7.04348">
        <ele>966.7429199</ele>
        <time>2012-01-21T10:05:10Z</time>
      </trkpt>
      <trkpt lat="43.76004" lon="7.043">
        <ele>966.7429199</ele>
        <time>2012-01-21T10:05:26Z</time>
      </trkpt>
      <trkpt lat="43.76065" lon="7.04221">
        <ele>963.378418</ele>
        <time>2012-01-21T10:06:19Z</time>
      </trkpt>
      <trkpt lat="43.76249" lon="7.04027">
        <ele>963.8588867</ele>
        <time>2012-01-21T10:07:23Z</time>
      </trkpt>
      <trkpt lat="43.76356" lon="7.03926">
        <ele>961.4558105</ele>
        <time>2012-01-21T10:07:47Z</time>
      </trkpt>
      <trkpt lat="43.76387" lon="7.03862">
        <ele>961.9365234</ele>
        <time>2012-01-21T10:07:59Z</time>
      </trkpt>
      <trkpt lat="43.76474" lon="7.03819">
        <ele>962.8977051</ele>
        <time>2012-01-21T10:08:24Z</time>
      </trkpt>
      <trkpt lat="43.765" lon="7.03648">
        <ele>969.6269531</ele>
        <time>2012-01-21T10:09:17Z</time>
      </trkpt>
      <trkpt lat="43.76563" lon="7.03453">
        <ele>974.9143066</ele>
        <time>2012-01-21T10:10:14Z</time>
      </trkpt>
      <trkpt lat="43.76683" lon="7.03165">
        <ele>991.7373047</ele>
        <time>2012-01-21T10:12:03Z</time>
      </trkpt>
      <trkpt lat="43.76748" lon="7.03031">
        <ele>996.5439453</ele>
        <time>2012-01-21T10:12:52Z</time>
      </trkpt>
      <trkpt lat="43.76822" lon="7.02785">
        <ele>1012.4055176</ele>
        <time>2012-01-21T10:14:27Z</time>
      </trkpt>
      <trkpt lat="43.76864" lon="7.02701">
        <ele>1021.0576172</ele>
        <time>2012-01-21T10:17:09Z</time>
      </trkpt>
      <trkpt lat="43.76902" lon="7.02621">
        <ele>1020.0961914</ele>
        <time>2012-01-21T10:26:45Z</time>
      </trkpt>
      <trkpt lat="43.76917" lon="7.02467">
        <ele>1008.5603027</ele>
        <time>2012-01-21T10:27:02Z</time>
      </trkpt>
      <trkpt lat="43.76947" lon="7.02417">
        <ele>1003.2729492</ele>
        <time>2012-01-21T10:27:10Z</time>
      </trkpt>
      <trkpt lat="43.76964" lon="7.02347">
        <ele>1000.3891602</ele>
        <time>2012-01-21T10:27:18Z</time>
      </trkpt>
      <trkpt lat="43.77003" lon="7.02282">
        <ele>995.1018066</ele>
        <time>2012-01-21T10:27:28Z</time>
      </trkpt>
      <trkpt lat="43.77027" lon="7.02199">
        <ele>996.0632324</ele>
        <time>2012-01-21T10:27:40Z</time>
      </trkpt>
      <trkpt lat="43.77067" lon="7.0217">
        <ele>997.505127</ele>
        <time>2012-01-21T10:27:53Z</time>
      </trkpt>
      <trkpt lat="43.77074" lon="7.02066">
        <ele>999.9084473</ele>
        <time>2012-01-21T10:28:18Z</time>
      </trkpt>
      <trkpt lat="43.77088" lon="7.02031">
        <ele>999.4277344</ele>
        <time>2012-01-21T10:28:27Z</time>
      </trkpt>
      <trkpt lat="43.77123" lon="7.02">
        <ele>998.4663086</ele>
        <time>2012-01-21T10:28:36Z</time>
      </trkpt>
      <trkpt lat="43.77135" lon="7.01977">
        <ele>997.505127</ele>
        <time>2012-01-21T10:28:41Z</time>
      </trkpt>
      <trkpt lat="43.77142" lon="7.01918">
        <ele>999.9084473</ele>
        <time>2012-01-21T10:28:57Z</time>
      </trkpt>
      <trkpt lat="43.77174" lon="7.01857">
        <ele>1001.8310547</ele>
        <time>2012-01-21T10:29:21Z</time>
      </trkpt>
      <trkpt lat="43.77178" lon="7.01779">
        <ele>1022.4995117</ele>
        <time>2012-01-21T10:31:41Z</time>
      </trkpt>
      <trkpt lat="43.77236" lon="7.01677">
        <ele>1027.3061523</ele>
        <time>2012-01-21T10:32:18Z</time>
      </trkpt>
      <trkpt lat="43.77269" lon="7.01596">
        <ele>1029.2285156</ele>
        <time>2012-01-21T10:32:49Z</time>
      </trkpt>
      <trkpt lat="43.77283" lon="7.01552">
        <ele>1029.7092285</ele>
        <time>2012-01-21T10:33:01Z</time>
      </trkpt>
      <trkpt lat="43.77167" lon="7.01367">
        <ele>1017.2121582</ele>
        <time>2012-01-21T10:33:43Z</time>
      </trkpt>
      <trkpt lat="43.77138" lon="7.01231">
        <ele>1008.5603027</ele>
        <time>2012-01-21T10:34:03Z</time>
      </trkpt>
      <trkpt lat="43.7714" lon="7.01198">
        <ele>1005.1958008</ele>
        <time>2012-01-21T10:34:09Z</time>
      </trkpt>
      <trkpt lat="43.77072" lon="7.01147">
        <ele>992.6987305</ele>
        <time>2012-01-21T10:34:26Z</time>
      </trkpt>
      <trkpt lat="43.77042" lon="7.00924">
        <ele>970.5881348</ele>
        <time>2012-01-21T10:36:12Z</time>
      </trkpt>
      <trkpt lat="43.77004" lon="7.0079">
        <ele>965.7817383</ele>
        <time>2012-01-21T10:36:27Z</time>
      </trkpt>
      <trkpt lat="43.76988" lon="7.00739">
        <ele>962.4169922</ele>
        <time>2012-01-21T10:36:33Z</time>
      </trkpt>
      <trkpt lat="43.76964" lon="7.00707">
        <ele>957.6105957</ele>
        <time>2012-01-21T10:36:40Z</time>
      </trkpt>
      <trkpt lat="43.76951" lon="7.00694">
        <ele>955.2070313</ele>
        <time>2012-01-21T10:36:45Z</time>
      </trkpt>
      <trkpt lat="43.76962" lon="7.00463">
        <ele>934.5388184</ele>
        <time>2012-01-21T10:37:12Z</time>
      </trkpt>
      <trkpt lat="43.76981" lon="7.0043">
        <ele>931.1743164</ele>
        <time>2012-01-21T10:37:18Z</time>
      </trkpt>
      <trkpt lat="43.76966" lon="7.00374">
        <ele>929.7321777</ele>
        <time>2012-01-21T10:37:28Z</time>
      </trkpt>
      <trkpt lat="43.76946" lon="7.00358">
        <ele>927.8095703</ele>
        <time>2012-01-21T10:37:33Z</time>
      </trkpt>
      <trkpt lat="43.76921" lon="7.00336">
        <ele>923.0029297</ele>
        <time>2012-01-21T10:37:40Z</time>
      </trkpt>
      <trkpt lat="43.76919" lon="7.00333">
        <ele>920.5996094</ele>
        <time>2012-01-21T10:37:51Z</time>
      </trkpt>
      <trkpt lat="43.76887" lon="7.00351">
        <ele>914.3510742</ele>
        <time>2012-01-21T10:38:37Z</time>
      </trkpt>
      <trkpt lat="43.76885" lon="7.00332">
        <ele>912.4284668</ele>
        <time>2012-01-21T10:38:42Z</time>
      </trkpt>
      <trkpt lat="43.76937" lon="7.0023">
        <ele>902.8151855</ele>
        <time>2012-01-21T10:39:01Z</time>
      </trkpt>
      <trkpt lat="43.76955" lon="7.00111">
        <ele>887.434082</ele>
        <time>2012-01-21T10:39:22Z</time>
      </trkpt>
      <trkpt lat="43.76986" lon="7.00061">
        <ele>880.2243652</ele>
        <time>2012-01-21T10:39:36Z</time>
      </trkpt>
      <trkpt lat="43.76976" lon="7.00038">
        <ele>878.7824707</ele>
        <time>2012-01-21T10:39:40Z</time>
      </trkpt>
      <trkpt lat="43.7699" lon="7.00057">
        <ele>877.3405762</ele>
        <time>2012-01-21T10:39:42Z</time>
      </trkpt>
      <trkpt lat="43.76994" lon="7.00052">
        <ele>875.4174805</ele>
        <time>2012-01-21T10:39:44Z</time>
      </trkpt>
      <trkpt lat="43.7698" lon="6.99998">
        <ele>873.9755859</ele>
        <time>2012-01-21T10:39:55Z</time>
      </trkpt>
      <trkpt lat="43.76966" lon="6.99998">
        <ele>874.4562988</ele>
        <time>2012-01-21T10:40:55Z</time>
      </trkpt>
      <trkpt lat="43.7703" lon="6.99838">
        <ele>870.1303711</ele>
        <time>2012-01-21T10:41:34Z</time>
      </trkpt>
      <trkpt lat="43.76981" lon="6.99875">
        <ele>869.1691895</ele>
        <time>2012-01-21T10:42:14Z</time>
      </trkpt>
      <trkpt lat="43.76977" lon="6.99964">
        <ele>873.4951172</ele>
        <time>2012-01-21T10:44:10Z</time>
      </trkpt>
      <trkpt lat="43.76959" lon="7.00007">
        <ele>873.4951172</ele>
        <time>2012-01-21T10:44:22Z</time>
      </trkpt>
      <trkpt lat="43.76973" lon="7.00078">
        <ele>872.5336914</ele>
        <time>2012-01-21T10:44:29Z</time>
      </trkpt>
      <trkpt lat="43.76883" lon="7.00112">
        <ele>870.611084</ele>
        <time>2012-01-21T10:44:37Z</time>
      </trkpt>
      <trkpt lat="43.76855" lon="7.00064">
        <ele>870.1303711</ele>
        <time>2012-01-21T10:44:43Z</time>
      </trkpt>
      <trkpt lat="43.76845" lon="7.0008">
        <ele>870.611084</ele>
        <time>2012-01-21T10:44:47Z</time>
      </trkpt>
      <trkpt lat="43.76855" lon="7.00106">
        <ele>871.0917969</ele>
        <time>2012-01-21T10:44:55Z</time>
      </trkpt>
      <trkpt lat="43.76868" lon="7.00107">
        <ele>868.6884766</ele>
        <time>2012-01-21T10:45:03Z</time>
      </trkpt>
      <trkpt lat="43.76869" lon="7.0017">
        <ele>867.246582</ele>
        <time>2012-01-21T10:45:05Z</time>
      </trkpt>
      <trkpt lat="43.76816" lon="7.00268">
        <ele>861.4787598</ele>
        <time>2012-01-21T10:45:19Z</time>
      </trkpt>
      <trkpt lat="43.76768" lon="7.00263">
        <ele>857.1525879</ele>
        <time>2012-01-21T10:45:27Z</time>
      </trkpt>
      <trkpt lat="43.76526" lon="7.00118">
        <ele>838.4069824</ele>
        <time>2012-01-21T10:46:44Z</time>
      </trkpt>
      <trkpt lat="43.7647" lon="7.00102">
        <ele>838.4069824</ele>
        <time>2012-01-21T10:46:56Z</time>
      </trkpt>
      <trkpt lat="43.76445" lon="7.00118">
        <ele>838.4069824</ele>
        <time>2012-01-21T10:47:02Z</time>
      </trkpt>
      <trkpt lat="43.76368" lon="7.00218">
        <ele>840.8100586</ele>
        <time>2012-01-21T10:47:31Z</time>
      </trkpt>
      <trkpt lat="43.76345" lon="7.00258">
        <ele>840.8100586</ele>
        <time>2012-01-21T10:47:42Z</time>
      </trkpt>
      <trkpt lat="43.76235" lon="7.00321">
        <ele>845.6169434</ele>
        <time>2012-01-21T10:48:22Z</time>
      </trkpt>
      <trkpt lat="43.76109" lon="7.00384">
        <ele>846.0976563</ele>
        <time>2012-01-21T10:49:36Z</time>
      </trkpt>
      <trkpt lat="43.76057" lon="7.00438">
        <ele>841.2907715</ele>
        <time>2012-01-21T10:49:52Z</time>
      </trkpt>
      <trkpt lat="43.76031" lon="7.00428">
        <ele>838.8876953</ele>
        <time>2012-01-21T10:49:55Z</time>
      </trkpt>
      <trkpt lat="43.76016" lon="7.00458">
        <ele>835.5229492</ele>
        <time>2012-01-21T10:49:59Z</time>
      </trkpt>
      <trkpt lat="43.76009" lon="7.00476">
        <ele>830.2358398</ele>
        <time>2012-01-21T10:50:05Z</time>
      </trkpt>
      <trkpt lat="43.75969" lon="7.0047">
        <ele>828.3132324</ele>
        <time>2012-01-21T10:50:12Z</time>
      </trkpt>
      <trkpt lat="43.75924" lon="7.00487">
        <ele>824.4677734</ele>
        <time>2012-01-21T10:50:20Z</time>
      </trkpt>
      <trkpt lat="43.75918" lon="7.00516">
        <ele>823.5065918</ele>
        <time>2012-01-21T10:50:24Z</time>
      </trkpt>
      <trkpt lat="43.75894" lon="7.00542">
        <ele>818.6999512</ele>
        <time>2012-01-21T10:50:29Z</time>
      </trkpt>
      <trkpt lat="43.75885" lon="7.00671">
        <ele>806.6833496</ele>
        <time>2012-01-21T10:50:50Z</time>
      </trkpt>
      <trkpt lat="43.75861" lon="7.00717">
        <ele>801.8769531</ele>
        <time>2012-01-21T10:51:04Z</time>
      </trkpt>
      <trkpt lat="43.75868" lon="7.0084">
        <ele>796.1091309</ele>
        <time>2012-01-21T10:51:20Z</time>
      </trkpt>
      <trkpt lat="43.7588" lon="7.00867">
        <ele>792.2636719</ele>
        <time>2012-01-21T10:51:26Z</time>
      </trkpt>
      <trkpt lat="43.75866" lon="7.00951">
        <ele>787.4570313</ele>
        <time>2012-01-21T10:51:38Z</time>
      </trkpt>
      <trkpt lat="43.75861" lon="7.00989">
        <ele>782.1699219</ele>
        <time>2012-01-21T10:52:05Z</time>
      </trkpt>
      <trkpt lat="43.75837" lon="7.01026">
        <ele>778.8051758</ele>
        <time>2012-01-21T10:52:13Z</time>
      </trkpt>
      <trkpt lat="43.75812" lon="7.01037">
        <ele>776.8825684</ele>
        <time>2012-01-21T10:52:18Z</time>
      </trkpt>
      <trkpt lat="43.758" lon="7.01046">
        <ele>773.9985352</ele>
        <time>2012-01-21T10:52:21Z</time>
      </trkpt>
      <trkpt lat="43.75711" lon="7.01045">
        <ele>759.0981445</ele>
        <time>2012-01-21T10:53:09Z</time>
      </trkpt>
      <trkpt lat="43.75613" lon="7.00954">
        <ele>743.717041</ele>
        <time>2012-01-21T10:54:00Z</time>
      </trkpt>
      <trkpt lat="43.75577" lon="7.00964">
        <ele>735.5458984</ele>
        <time>2012-01-21T10:54:14Z</time>
      </trkpt>
      <trkpt lat="43.75533" lon="7.01021">
        <ele>732.6621094</ele>
        <time>2012-01-21T10:54:35Z</time>
      </trkpt>
      <trkpt lat="43.75469" lon="7.01025">
        <ele>729.777832</ele>
        <time>2012-01-21T10:55:03Z</time>
      </trkpt>
      <trkpt lat="43.75425" lon="7.01061">
        <ele>728.8166504</ele>
        <time>2012-01-21T10:55:28Z</time>
      </trkpt>
      <trkpt lat="43.75403" lon="7.01061">
        <ele>726.4133301</ele>
        <time>2012-01-21T10:55:41Z</time>
      </trkpt>
      <trkpt lat="43.75335" lon="7.00994">
        <ele>724.9714355</ele>
        <time>2012-01-21T10:57:20Z</time>
      </trkpt>
      <trkpt lat="43.75304" lon="7.01028">
        <ele>725.9326172</ele>
        <time>2012-01-21T10:57:32Z</time>
      </trkpt>
      <trkpt lat="43.75285" lon="7.01059">
        <ele>724.0100098</ele>
        <time>2012-01-21T10:57:39Z</time>
      </trkpt>
      <trkpt lat="43.75226" lon="7.01076">
        <ele>723.0488281</ele>
        <time>2012-01-21T10:57:57Z</time>
      </trkpt>
      <trkpt lat="43.7518" lon="7.01076">
        <ele>721.1262207</ele>
        <time>2012-01-21T10:58:11Z</time>
      </trkpt>
      <trkpt lat="43.75116" lon="7.0107">
        <ele>708.1484375</ele>
        <time>2012-01-21T10:58:40Z</time>
      </trkpt>
      <trkpt lat="43.75086" lon="7.01029">
        <ele>700.9384766</ele>
        <time>2012-01-21T10:58:58Z</time>
      </trkpt>
      <trkpt lat="43.75084" lon="7.0106">
        <ele>696.6125488</ele>
        <time>2012-01-21T10:59:09Z</time>
      </trkpt>
      <trkpt lat="43.75071" lon="7.01049">
        <ele>692.2866211</ele>
        <time>2012-01-21T10:59:19Z</time>
      </trkpt>
      <trkpt lat="43.75067" lon="7.01068">
        <ele>689.4025879</ele>
        <time>2012-01-21T10:59:26Z</time>
      </trkpt>
      <trkpt lat="43.75052" lon="7.01017">
        <ele>682.192627</ele>
        <time>2012-01-21T10:59:42Z</time>
      </trkpt>
      <trkpt lat="43.75035" lon="7.00995">
        <ele>676.4248047</ele>
        <time>2012-01-21T10:59:59Z</time>
      </trkpt>
      <trkpt lat="43.74946" lon="7.009">
        <ele>660.5629883</ele>
        <time>2012-01-21T11:01:01Z</time>
      </trkpt>
      <trkpt lat="43.74919" lon="7.00885">
        <ele>655.7565918</ele>
        <time>2012-01-21T11:01:14Z</time>
      </trkpt>
      <trkpt lat="43.74818" lon="7.00916">
        <ele>650.4692383</ele>
        <time>2012-01-21T11:05:27Z</time>
      </trkpt>
      <trkpt lat="43.74758" lon="7.00893">
        <ele>648.5463867</ele>
        <time>2012-01-21T11:05:54Z</time>
      </trkpt>
      <trkpt lat="43.74718" lon="7.0095">
        <ele>642.2980957</ele>
        <time>2012-01-21T11:06:24Z</time>
      </trkpt>
      <trkpt lat="43.74707" lon="7.00961">
        <ele>637.4914551</ele>
        <time>2012-01-21T11:07:34Z</time>
      </trkpt>
      <trkpt lat="43.74631" lon="7.00994">
        <ele>632.6848145</ele>
        <time>2012-01-21T11:08:00Z</time>
      </trkpt>
      <trkpt lat="43.74596" lon="7.00996">
        <ele>627.3977051</ele>
        <time>2012-01-21T11:08:08Z</time>
      </trkpt>
      <trkpt lat="43.74471" lon="7.00943">
        <ele>622.5910645</ele>
        <time>2012-01-21T11:08:45Z</time>
      </trkpt>
      <trkpt lat="43.74387" lon="7.00932">
        <ele>624.032959</ele>
        <time>2012-01-21T11:09:22Z</time>
      </trkpt>
      <trkpt lat="43.74326" lon="7.00957">
        <ele>624.5136719</ele>
        <time>2012-01-21T11:09:33Z</time>
      </trkpt>
      <trkpt lat="43.7438" lon="7.00882">
        <ele>624.5136719</ele>
        <time>2012-01-21T11:09:39Z</time>
      </trkpt>
      <trkpt lat="43.74308" lon="7.0084">
        <ele>624.032959</ele>
        <time>2012-01-21T11:09:50Z</time>
      </trkpt>
      <trkpt lat="43.74264" lon="7.00866">
        <ele>626.9169922</ele>
        <time>2012-01-21T11:10:04Z</time>
      </trkpt>
      <trkpt lat="43.74237" lon="7.00849">
        <ele>624.9943848</ele>
        <time>2012-01-21T11:10:16Z</time>
      </trkpt>
      <trkpt lat="43.74235" lon="7.00816">
        <ele>623.0717773</ele>
        <time>2012-01-21T11:10:23Z</time>
      </trkpt>
      <trkpt lat="43.74236" lon="7.00881">
        <ele>628.3588867</ele>
        <time>2012-01-21T11:10:45Z</time>
      </trkpt>
      <trkpt lat="43.74254" lon="7.00863">
        <ele>628.8395996</ele>
        <time>2012-01-21T11:11:00Z</time>
      </trkpt>
      <trkpt lat="43.74245" lon="7.00918">
        <ele>628.8395996</ele>
        <time>2012-01-21T11:12:33Z</time>
      </trkpt>
      <trkpt lat="43.74264" lon="7.00908">
        <ele>629.3200684</ele>
        <time>2012-01-21T11:12:49Z</time>
      </trkpt>
      <trkpt lat="43.74245" lon="7.00916">
        <ele>628.8395996</ele>
        <time>2012-01-21T11:12:53Z</time>
      </trkpt>
      <trkpt lat="43.74264" lon="7.00908">
        <ele>629.8007813</ele>
        <time>2012-01-21T11:12:58Z</time>
      </trkpt>
      <trkpt lat="43.74255" lon="7.00933">
        <ele>629.3200684</ele>
        <time>2012-01-21T11:13:04Z</time>
      </trkpt>
      <trkpt lat="43.74309" lon="7.00951">
        <ele>634.126709</ele>
        <time>2012-01-21T11:13:47Z</time>
      </trkpt>
      <trkpt lat="43.74309" lon="7.00951">
        <ele>645.1818848</ele>
        <time>2012-01-21T11:19:11Z</time>
      </trkpt>
      <trkpt lat="43.74241" lon="7.01039">
        <ele>648.065918</ele>
        <time>2012-01-21T11:19:33Z</time>
      </trkpt>
      <trkpt lat="43.74241" lon="7.01039">
        <ele>661.0437012</ele>
        <time>2012-01-21T11:21:16Z</time>
      </trkpt>
      <trkpt lat="43.74176" lon="7.01098">
        <ele>688.9221191</ele>
        <time>2012-01-21T11:24:42Z</time>
      </trkpt>
      <trkpt lat="43.74071" lon="7.01151">
        <ele>701.8999023</ele>
        <time>2012-01-21T11:26:29Z</time>
      </trkpt>
      <trkpt lat="43.7402" lon="7.01197">
        <ele>702.861084</ele>
        <time>2012-01-21T11:26:41Z</time>
      </trkpt>
      <trkpt lat="43.74001" lon="7.01228">
        <ele>705.7451172</ele>
        <time>2012-01-21T11:26:58Z</time>
      </trkpt>
      <trkpt lat="43.73978" lon="7.0128">
        <ele>711.5129395</ele>
        <time>2012-01-21T11:27:44Z</time>
      </trkpt>
      <trkpt lat="43.74007" lon="7.01276">
        <ele>713.4355469</ele>
        <time>2012-01-21T11:28:01Z</time>
      </trkpt>
      <trkpt lat="43.74035" lon="7.01313">
        <ele>735.0654297</ele>
        <time>2012-01-21T11:30:49Z</time>
      </trkpt>
      <trkpt lat="43.74097" lon="7.01432">
        <ele>737.9492188</ele>
        <time>2012-01-21T11:31:09Z</time>
      </trkpt>
      <trkpt lat="43.74139" lon="7.0146">
        <ele>743.717041</ele>
        <time>2012-01-21T11:31:44Z</time>
      </trkpt>
      <trkpt lat="43.742" lon="7.01465">
        <ele>753.8110352</ele>
        <time>2012-01-21T11:32:52Z</time>
      </trkpt>
      <trkpt lat="43.74236" lon="7.01488">
        <ele>756.2141113</ele>
        <time>2012-01-21T11:35:05Z</time>
      </trkpt>
      <trkpt lat="43.74352" lon="7.0149">
        <ele>769.1921387</ele>
        <time>2012-01-21T11:36:14Z</time>
      </trkpt>
      <trkpt lat="43.74349" lon="7.01515">
        <ele>775.4404297</ele>
        <time>2012-01-21T11:37:00Z</time>
      </trkpt>
      <trkpt lat="43.74365" lon="7.01517">
        <ele>781.689209</ele>
        <time>2012-01-21T11:37:57Z</time>
      </trkpt>
      <trkpt lat="43.74341" lon="7.01553">
        <ele>784.5732422</ele>
        <time>2012-01-21T11:38:43Z</time>
      </trkpt>
      <trkpt lat="43.74408" lon="7.01521">
        <ele>798.0317383</ele>
        <time>2012-01-21T11:40:32Z</time>
      </trkpt>
      <trkpt lat="43.74549" lon="7.01427">
        <ele>816.7773438</ele>
        <time>2012-01-21T11:43:42Z</time>
      </trkpt>
      <trkpt lat="43.74608" lon="7.01416">
        <ele>827.3518066</ele>
        <time>2012-01-21T11:45:02Z</time>
      </trkpt>
      <trkpt lat="43.74629" lon="7.01391">
        <ele>832.1584473</ele>
        <time>2012-01-21T11:45:41Z</time>
      </trkpt>
      <trkpt lat="43.74632" lon="7.01394">
        <ele>835.5229492</ele>
        <time>2012-01-21T11:45:59Z</time>
      </trkpt>
      <trkpt lat="43.74627" lon="7.0144">
        <ele>843.2133789</ele>
        <time>2012-01-21T11:47:01Z</time>
      </trkpt>
      <trkpt lat="43.74659" lon="7.01391">
        <ele>849.9428711</ele>
        <time>2012-01-21T11:48:08Z</time>
      </trkpt>
      <trkpt lat="43.74674" lon="7.01384">
        <ele>852.3459473</ele>
        <time>2012-01-21T11:48:32Z</time>
      </trkpt>
      <trkpt lat="43.74654" lon="7.01473">
        <ele>866.2851563</ele>
        <time>2012-01-21T11:51:27Z</time>
      </trkpt>
      <trkpt lat="43.74623" lon="7.01522">
        <ele>873.9755859</ele>
        <time>2012-01-21T11:52:45Z</time>
      </trkpt>
      <trkpt lat="43.74631" lon="7.0152">
        <ele>874.9370117</ele>
        <time>2012-01-21T11:53:43Z</time>
      </trkpt>
      <trkpt lat="43.7467" lon="7.0149">
        <ele>879.2629395</ele>
        <time>2012-01-21T11:54:17Z</time>
      </trkpt>
      <trkpt lat="43.74718" lon="7.01409">
        <ele>885.0310059</ele>
        <time>2012-01-21T11:58:26Z</time>
      </trkpt>
      <trkpt lat="43.74754" lon="7.01411">
        <ele>884.0695801</ele>
        <time>2012-01-21T11:58:43Z</time>
      </trkpt>
      <trkpt lat="43.74877" lon="7.01569">
        <ele>890.798584</ele>
        <time>2012-01-21T11:59:51Z</time>
      </trkpt>
      <trkpt lat="43.75009" lon="7.01614">
        <ele>913.3898926</ele>
        <time>2012-01-21T12:03:05Z</time>
      </trkpt>
      <trkpt lat="43.75074" lon="7.01624">
        <ele>923.4836426</ele>
        <time>2012-01-21T12:04:45Z</time>
      </trkpt>
      <trkpt lat="43.75099" lon="7.01603">
        <ele>929.7321777</ele>
        <time>2012-01-21T12:05:37Z</time>
      </trkpt>
      <trkpt lat="43.75108" lon="7.01606">
        <ele>930.6936035</ele>
        <time>2012-01-21T12:07:42Z</time>
      </trkpt>
      <trkpt lat="43.75151" lon="7.01622">
        <ele>930.2128906</ele>
        <time>2012-01-21T12:07:57Z</time>
      </trkpt>
      <trkpt lat="43.75355" lon="7.018">
        <ele>938.8647461</ele>
        <time>2012-01-21T12:09:26Z</time>
      </trkpt>
      <trkpt lat="43.75445" lon="7.01807">
        <ele>942.7102051</ele>
        <time>2012-01-21T12:10:40Z</time>
      </trkpt>
      <trkpt lat="43.75605" lon="7.01837">
        <ele>939.8259277</ele>
        <time>2012-01-21T12:11:24Z</time>
      </trkpt>
      <trkpt lat="43.75788" lon="7.01902">
        <ele>947.5166016</ele>
        <time>2012-01-21T12:12:37Z</time>
      </trkpt>
      <trkpt lat="43.75805" lon="7.01893">
        <ele>949.9199219</ele>
        <time>2012-01-21T12:13:08Z</time>
      </trkpt>
      <trkpt lat="43.75805" lon="7.01889">
        <ele>947.9973145</ele>
        <time>2012-01-21T12:36:51Z</time>
      </trkpt>
      <trkpt lat="43.75805" lon="7.02005">
        <ele>943.6713867</ele>
        <time>2012-01-21T12:37:11Z</time>
      </trkpt>
      <trkpt lat="43.75805" lon="7.02043">
        <ele>939.8259277</ele>
        <time>2012-01-21T12:37:16Z</time>
      </trkpt>
      <trkpt lat="43.75769" lon="7.02188">
        <ele>935.5</ele>
        <time>2012-01-21T12:37:37Z</time>
      </trkpt>
      <trkpt lat="43.75782" lon="7.02288">
        <ele>929.2514648</ele>
        <time>2012-01-21T12:37:53Z</time>
      </trkpt>
      <trkpt lat="43.75773" lon="7.02386">
        <ele>930.2128906</ele>
        <time>2012-01-21T12:38:05Z</time>
      </trkpt>
      <trkpt lat="43.75769" lon="7.02434">
        <ele>927.8095703</ele>
        <time>2012-01-21T12:38:18Z</time>
      </trkpt>
      <trkpt lat="43.75667" lon="7.02455">
        <ele>928.7709961</ele>
        <time>2012-01-21T12:38:27Z</time>
      </trkpt>
      <trkpt lat="43.75675" lon="7.02494">
        <ele>931.1743164</ele>
        <time>2012-01-21T12:38:51Z</time>
      </trkpt>
      <trkpt lat="43.75659" lon="7.02543">
        <ele>935.9807129</ele>
        <time>2012-01-21T12:39:34Z</time>
      </trkpt>
      <trkpt lat="43.75659" lon="7.02554">
        <ele>936.4614258</ele>
        <time>2012-01-21T12:39:42Z</time>
      </trkpt>
      <trkpt lat="43.75738" lon="7.02647">
        <ele>933.5773926</ele>
        <time>2012-01-21T12:40:10Z</time>
      </trkpt>
      <trkpt lat="43.7576" lon="7.02712">
        <ele>934.0581055</ele>
        <time>2012-01-21T12:40:21Z</time>
      </trkpt>
      <trkpt lat="43.75717" lon="7.02743">
        <ele>932.6162109</ele>
        <time>2012-01-21T12:40:33Z</time>
      </trkpt>
      <trkpt lat="43.75706" lon="7.02883">
        <ele>930.6936035</ele>
        <time>2012-01-21T12:40:51Z</time>
      </trkpt>
      <trkpt lat="43.75589" lon="7.02969">
        <ele>938.3840332</ele>
        <time>2012-01-21T12:41:43Z</time>
      </trkpt>
      <trkpt lat="43.75638" lon="7.03084">
        <ele>940.3068848</ele>
        <time>2012-01-21T12:42:17Z</time>
      </trkpt>
      <trkpt lat="43.7564" lon="7.03158">
        <ele>941.2680664</ele>
        <time>2012-01-21T12:42:37Z</time>
      </trkpt>
      <trkpt lat="43.75653" lon="7.03213">
        <ele>940.7873535</ele>
        <time>2012-01-21T12:42:50Z</time>
      </trkpt>
      <trkpt lat="43.75781" lon="7.03465">
        <ele>935.9807129</ele>
        <time>2012-01-21T12:43:43Z</time>
      </trkpt>
      <trkpt lat="43.75835" lon="7.03479">
        <ele>933.5773926</ele>
        <time>2012-01-21T12:43:54Z</time>
      </trkpt>
      <trkpt lat="43.75809" lon="7.0363">
        <ele>941.2680664</ele>
        <time>2012-01-21T12:44:39Z</time>
      </trkpt>
      <trkpt lat="43.75812" lon="7.03698">
        <ele>946.074707</ele>
        <time>2012-01-21T12:45:03Z</time>
      </trkpt>
      <trkpt lat="43.75848" lon="7.03735">
        <ele>947.5166016</ele>
        <time>2012-01-21T12:45:25Z</time>
      </trkpt>
      <trkpt lat="43.75857" lon="7.03788">
        <ele>951.3618164</ele>
        <time>2012-01-21T12:45:47Z</time>
      </trkpt>
      <trkpt lat="43.75828" lon="7.0382">
        <ele>955.6877441</ele>
        <time>2012-01-21T12:46:12Z</time>
      </trkpt>
      <trkpt lat="43.75801" lon="7.03836">
        <ele>954.2458496</ele>
        <time>2012-01-21T12:46:30Z</time>
      </trkpt>
      <trkpt lat="43.75823" lon="7.0392">
        <ele>952.8037109</ele>
        <time>2012-01-21T12:47:01Z</time>
      </trkpt>
      <trkpt lat="43.7582" lon="7.03974">
        <ele>953.2844238</ele>
        <time>2012-01-21T12:47:35Z</time>
      </trkpt>
      <trkpt lat="43.75858" lon="7.04065">
        <ele>957.1298828</ele>
        <time>2012-01-21T12:50:05Z</time>
      </trkpt>
      <trkpt lat="43.75887" lon="7.04085">
        <ele>958.5717773</ele>
        <time>2012-01-21T12:50:17Z</time>
      </trkpt>
      <trkpt lat="43.75922" lon="7.04111">
        <ele>959.5332031</ele>
        <time>2012-01-21T12:50:33Z</time>
      </trkpt>
      <trkpt lat="43.75938" lon="7.04168">
        <ele>960.4943848</ele>
        <time>2012-01-21T12:50:46Z</time>
      </trkpt>
      <trkpt lat="43.7597" lon="7.04208">
        <ele>960.4943848</ele>
        <time>2012-01-21T12:51:00Z</time>
      </trkpt>
      <trkpt lat="43.7604" lon="7.04243">
        <ele>962.8977051</ele>
        <time>2012-01-21T12:51:27Z</time>
      </trkpt>
      <trkpt lat="43.75986" lon="7.04324">
        <ele>965.7817383</ele>
        <time>2012-01-21T12:51:56Z</time>
      </trkpt>
      <trkpt lat="43.7593" lon="7.04353">
        <ele>966.7429199</ele>
        <time>2012-01-21T12:52:13Z</time>
      </trkpt>
      <trkpt lat="43.75856" lon="7.04386">
        <ele>966.7429199</ele>
        <time>2012-01-21T12:52:34Z</time>
      </trkpt>
      <trkpt lat="43.75749" lon="7.04529">
        <ele>967.7041016</ele>
        <time>2012-01-21T12:53:09Z</time>
      </trkpt>
      <trkpt lat="43.75748" lon="7.04542">
        <ele>967.2236328</ele>
        <time>2012-01-21T12:53:12Z</time>
      </trkpt>
      <trkpt lat="43.75578" lon="7.04718">
        <ele>961.4558105</ele>
        <time>2012-01-21T12:54:02Z</time>
      </trkpt>
      <trkpt lat="43.75556" lon="7.0475">
        <ele>959.5332031</ele>
        <time>2012-01-21T12:54:09Z</time>
      </trkpt>
      <trkpt lat="43.75484" lon="7.04965">
        <ele>969.1462402</ele>
        <time>2012-01-21T12:55:29Z</time>
      </trkpt>
      <trkpt lat="43.75479" lon="7.0497">
        <ele>969.1462402</ele>
        <time>2012-01-21T12:55:32Z</time>
      </trkpt>
      <trkpt lat="43.75461" lon="7.04987">
        <ele>967.2236328</ele>
        <time>2012-01-21T12:55:37Z</time>
      </trkpt>
      <trkpt lat="43.75442" lon="7.05099">
        <ele>966.7429199</ele>
        <time>2012-01-21T12:56:00Z</time>
      </trkpt>
      <trkpt lat="43.75419" lon="7.05136">
        <ele>966.262207</ele>
        <time>2012-01-21T12:56:12Z</time>
      </trkpt>
      <trkpt lat="43.75381" lon="7.05164">
        <ele>965.3010254</ele>
        <time>2012-01-21T12:56:25Z</time>
      </trkpt>
      <trkpt lat="43.75349" lon="7.0522">
        <ele>966.7429199</ele>
        <time>2012-01-21T12:56:45Z</time>
      </trkpt>
      <trkpt lat="43.75308" lon="7.05281">
        <ele>965.3010254</ele>
        <time>2012-01-21T12:57:02Z</time>
      </trkpt>
      <trkpt lat="43.75285" lon="7.05344">
        <ele>965.3010254</ele>
        <time>2012-01-21T12:57:17Z</time>
      </trkpt>
      <trkpt lat="43.75238" lon="7.0544">
        <ele>960.9750977</ele>
        <time>2012-01-21T12:57:41Z</time>
      </trkpt>
      <trkpt lat="43.75048" lon="7.05624">
        <ele>967.2236328</ele>
        <time>2012-01-21T12:59:15Z</time>
      </trkpt>
      <trkpt lat="43.75039" lon="7.05649">
        <ele>969.1462402</ele>
        <time>2012-01-21T13:05:43Z</time>
      </trkpt>
      <trkpt lat="43.75019" lon="7.05675">
        <ele>969.6269531</ele>
        <time>2012-01-21T13:08:00Z</time>
      </trkpt>
      <trkpt lat="43.74991" lon="7.05682">
        <ele>966.262207</ele>
        <time>2012-01-21T13:08:06Z</time>
      </trkpt>
      <trkpt lat="43.7494" lon="7.05779">
        <ele>960.4943848</ele>
        <time>2012-01-21T13:08:33Z</time>
      </trkpt>
      <trkpt lat="43.74919" lon="7.05817">
        <ele>957.6105957</ele>
        <time>2012-01-21T13:08:42Z</time>
      </trkpt>
      <trkpt lat="43.74914" lon="7.05823">
        <ele>956.168457</ele>
        <time>2012-01-21T13:08:44Z</time>
      </trkpt>
      <trkpt lat="43.74809" lon="7.05844">
        <ele>942.2294922</ele>
        <time>2012-01-21T13:09:07Z</time>
      </trkpt>
      <trkpt lat="43.74762" lon="7.05914">
        <ele>933.0966797</ele>
        <time>2012-01-21T13:09:26Z</time>
      </trkpt>
      <trkpt lat="43.74759" lon="7.06029">
        <ele>923.0029297</ele>
        <time>2012-01-21T13:09:44Z</time>
      </trkpt>
      <trkpt lat="43.74729" lon="7.06074">
        <ele>917.2351074</ele>
        <time>2012-01-21T13:09:55Z</time>
      </trkpt>
      <trkpt lat="43.74742" lon="7.06093">
        <ele>915.3125</ele>
        <time>2012-01-21T13:10:01Z</time>
      </trkpt>
      <trkpt lat="43.74773" lon="7.0607">
        <ele>914.8317871</ele>
        <time>2012-01-21T13:10:16Z</time>
      </trkpt>
      <trkpt lat="43.7479" lon="7.06052">
        <ele>913.3898926</ele>
        <time>2012-01-21T13:10:34Z</time>
      </trkpt>
      <trkpt lat="43.74825" lon="7.06033">
        <ele>905.6992188</ele>
        <time>2012-01-21T13:10:43Z</time>
      </trkpt>
      <trkpt lat="43.74807" lon="7.06043">
        <ele>904.2573242</ele>
        <time>2012-01-21T13:10:47Z</time>
      </trkpt>
      <trkpt lat="43.74827" lon="7.0605">
        <ele>902.8151855</ele>
        <time>2012-01-21T13:10:49Z</time>
      </trkpt>
      <trkpt lat="43.74799" lon="7.06206">
        <ele>874.9370117</ele>
        <time>2012-01-21T13:11:31Z</time>
      </trkpt>
      <trkpt lat="43.74764" lon="7.06267">
        <ele>860.0366211</ele>
        <time>2012-01-21T13:12:17Z</time>
      </trkpt>
      <trkpt lat="43.74781" lon="7.06275">
        <ele>856.1911621</ele>
        <time>2012-01-21T13:12:26Z</time>
      </trkpt>
      <trkpt lat="43.74759" lon="7.06299">
        <ele>848.0202637</ele>
        <time>2012-01-21T13:12:44Z</time>
      </trkpt>
      <trkpt lat="43.74776" lon="7.06325">
        <ele>841.7714844</ele>
        <time>2012-01-21T13:12:57Z</time>
      </trkpt>
      <trkpt lat="43.74739" lon="7.06389">
        <ele>829.755127</ele>
        <time>2012-01-21T13:14:34Z</time>
      </trkpt>
      <trkpt lat="43.74748" lon="7.06384">
        <ele>830.7165527</ele>
        <time>2012-01-21T13:15:13Z</time>
      </trkpt>
      <trkpt lat="43.74746" lon="7.06395">
        <ele>832.6391602</ele>
        <time>2012-01-21T13:15:24Z</time>
      </trkpt>
      <trkpt lat="43.74645" lon="7.06415">
        <ele>814.8547363</ele>
        <time>2012-01-21T13:16:55Z</time>
      </trkpt>
      <trkpt lat="43.74604" lon="7.06447">
        <ele>811.4899902</ele>
        <time>2012-01-21T13:17:03Z</time>
      </trkpt>
      <trkpt lat="43.74559" lon="7.06508">
        <ele>804.2802734</ele>
        <time>2012-01-21T13:17:15Z</time>
      </trkpt>
      <trkpt lat="43.74471" lon="7.06598">
        <ele>780.2473145</ele>
        <time>2012-01-21T13:18:55Z</time>
      </trkpt>
      <trkpt lat="43.7445" lon="7.06651">
        <ele>776.8825684</ele>
        <time>2012-01-21T13:19:48Z</time>
      </trkpt>
      <trkpt lat="43.7443" lon="7.06689">
        <ele>771.5952148</ele>
        <time>2012-01-21T13:19:55Z</time>
      </trkpt>
      <trkpt lat="43.74399" lon="7.06746">
        <ele>761.9821777</ele>
        <time>2012-01-21T13:20:15Z</time>
      </trkpt>
      <trkpt lat="43.74379" lon="7.06842">
        <ele>753.3303223</ele>
        <time>2012-01-21T13:20:34Z</time>
      </trkpt>
      <trkpt lat="43.7438" lon="7.06949">
        <ele>746.1203613</ele>
        <time>2012-01-21T13:20:53Z</time>
      </trkpt>
      <trkpt lat="43.74404" lon="7.07193">
        <ele>715.8388672</ele>
        <time>2012-01-21T13:22:03Z</time>
      </trkpt>
      <trkpt lat="43.74368" lon="7.07414">
        <ele>705.2644043</ele>
        <time>2012-01-21T13:22:55Z</time>
      </trkpt>
      <trkpt lat="43.74344" lon="7.07554">
        <ele>686.5187988</ele>
        <time>2012-01-21T13:23:44Z</time>
      </trkpt>
      <trkpt lat="43.74355" lon="7.07686">
        <ele>676.9055176</ele>
        <time>2012-01-21T13:24:15Z</time>
      </trkpt>
      <trkpt lat="43.74389" lon="7.07752">
        <ele>674.0214844</ele>
        <time>2012-01-21T13:24:33Z</time>
      </trkpt>
      <trkpt lat="43.74395" lon="7.07793">
        <ele>667.2922363</ele>
        <time>2012-01-21T13:24:47Z</time>
      </trkpt>
      <trkpt lat="43.74357" lon="7.07796">
        <ele>655.2758789</ele>
        <time>2012-01-21T13:25:43Z</time>
      </trkpt>
      <trkpt lat="43.74294" lon="7.07754">
        <ele>640.3754883</ele>
        <time>2012-01-21T13:26:11Z</time>
      </trkpt>
      <trkpt lat="43.74301" lon="7.07784">
        <ele>634.6074219</ele>
        <time>2012-01-21T13:26:36Z</time>
      </trkpt>
      <trkpt lat="43.74241" lon="7.07821">
        <ele>623.0717773</ele>
        <time>2012-01-21T13:27:36Z</time>
      </trkpt>
      <trkpt lat="43.74229" lon="7.07994">
        <ele>627.8781738</ele>
        <time>2012-01-21T13:29:06Z</time>
      </trkpt>
      <trkpt lat="43.74187" lon="7.08095">
        <ele>630.762207</ele>
        <time>2012-01-21T13:30:25Z</time>
      </trkpt>
      <trkpt lat="43.74153" lon="7.08142">
        <ele>628.3588867</ele>
        <time>2012-01-21T13:30:40Z</time>
      </trkpt>
      <trkpt lat="43.74129" lon="7.08147">
        <ele>626.9169922</ele>
        <time>2012-01-21T13:30:47Z</time>
      </trkpt>
      <trkpt lat="43.74104" lon="7.08181">
        <ele>625.4748535</ele>
        <time>2012-01-21T13:30:55Z</time>
      </trkpt>
      <trkpt lat="43.74085" lon="7.08206">
        <ele>624.032959</ele>
        <time>2012-01-21T13:31:00Z</time>
      </trkpt>
      <trkpt lat="43.73993" lon="7.08291">
        <ele>612.4970703</ele>
        <time>2012-01-21T13:31:21Z</time>
      </trkpt>
      <trkpt lat="43.73971" lon="7.08334">
        <ele>610.5744629</ele>
        <time>2012-01-21T13:31:29Z</time>
      </trkpt>
      <trkpt lat="43.73937" lon="7.08351">
        <ele>610.5744629</ele>
        <time>2012-01-21T13:31:41Z</time>
      </trkpt>
      <trkpt lat="43.73923" lon="7.08351">
        <ele>609.1325684</ele>
        <time>2012-01-21T13:31:46Z</time>
      </trkpt>
      <trkpt lat="43.73882" lon="7.08377">
        <ele>604.8066406</ele>
        <time>2012-01-21T13:31:57Z</time>
      </trkpt>
      <trkpt lat="43.73841" lon="7.08382">
        <ele>600.4807129</ele>
        <time>2012-01-21T13:32:10Z</time>
      </trkpt>
      <trkpt lat="43.7371" lon="7.08478">
        <ele>599.5192871</ele>
        <time>2012-01-21T13:33:31Z</time>
      </trkpt>
      <trkpt lat="43.73702" lon="7.08506">
        <ele>598.5578613</ele>
        <time>2012-01-21T13:33:38Z</time>
      </trkpt>
      <trkpt lat="43.73681" lon="7.08595">
        <ele>592.3095703</ele>
        <time>2012-01-21T13:34:00Z</time>
      </trkpt>
      <trkpt lat="43.73642" lon="7.08676">
        <ele>587.0219727</ele>
        <time>2012-01-21T13:34:19Z</time>
      </trkpt>
      <trkpt lat="43.73601" lon="7.08721">
        <ele>586.060791</ele>
        <time>2012-01-21T13:34:34Z</time>
      </trkpt>
      <trkpt lat="43.73573" lon="7.08802">
        <ele>576.4477539</ele>
        <time>2012-01-21T13:34:48Z</time>
      </trkpt>
      <trkpt lat="43.73459" lon="7.08994">
        <ele>557.2214355</ele>
        <time>2012-01-21T13:36:10Z</time>
      </trkpt>
      <trkpt lat="43.73384" lon="7.09074">
        <ele>547.1274414</ele>
        <time>2012-01-21T13:36:22Z</time>
      </trkpt>
      <trkpt lat="43.73347" lon="7.09144">
        <ele>533.1883545</ele>
        <time>2012-01-21T13:36:29Z</time>
      </trkpt>
      <trkpt lat="43.73339" lon="7.09262">
        <ele>522.1331787</ele>
        <time>2012-01-21T13:36:38Z</time>
      </trkpt>
      <trkpt lat="43.73304" lon="7.09329">
        <ele>521.1719971</ele>
        <time>2012-01-21T13:36:45Z</time>
      </trkpt>
      <trkpt lat="43.73299" lon="7.09391">
        <ele>521.6525879</ele>
        <time>2012-01-21T13:36:52Z</time>
      </trkpt>
      <trkpt lat="43.73305" lon="7.09536">
        <ele>514.442627</ele>
        <time>2012-01-21T13:37:07Z</time>
      </trkpt>
      <trkpt lat="43.73272" lon="7.09594">
        <ele>511.0780029</ele>
        <time>2012-01-21T13:37:13Z</time>
      </trkpt>
      <trkpt lat="43.7324" lon="7.0963">
        <ele>506.2714844</ele>
        <time>2012-01-21T13:37:18Z</time>
      </trkpt>
      <trkpt lat="43.73226" lon="7.09743">
        <ele>502.4261475</ele>
        <time>2012-01-21T13:37:29Z</time>
      </trkpt>
      <trkpt lat="43.73215" lon="7.0977">
        <ele>498.1003418</ele>
        <time>2012-01-21T13:37:32Z</time>
      </trkpt>
      <trkpt lat="43.73213" lon="7.09773">
        <ele>495.2161865</ele>
        <time>2012-01-21T13:37:34Z</time>
      </trkpt>
      <trkpt lat="43.73231" lon="7.09768">
        <ele>493.2935791</ele>
        <time>2012-01-21T13:37:36Z</time>
      </trkpt>
      <trkpt lat="43.73209" lon="7.09797">
        <ele>492.8129883</ele>
        <time>2012-01-21T13:37:38Z</time>
      </trkpt>
      <trkpt lat="43.73187" lon="7.09873">
        <ele>482.2385254</ele>
        <time>2012-01-21T13:37:45Z</time>
      </trkpt>
      <trkpt lat="43.73184" lon="7.09912">
        <ele>476.4705811</ele>
        <time>2012-01-21T13:37:48Z</time>
      </trkpt>
      <trkpt lat="43.73191" lon="7.09947">
        <ele>470.7026367</ele>
        <time>2012-01-21T13:37:52Z</time>
      </trkpt>
      <trkpt lat="43.73192" lon="7.09964">
        <ele>465.4155273</ele>
        <time>2012-01-21T13:38:08Z</time>
      </trkpt>
      <trkpt lat="43.7317" lon="7.09984">
        <ele>461.5701904</ele>
        <time>2012-01-21T13:38:18Z</time>
      </trkpt>
      <trkpt lat="43.73168" lon="7.09987">
        <ele>458.2055664</ele>
        <time>2012-01-21T13:38:45Z</time>
      </trkpt>
      <trkpt lat="43.73118" lon="7.10096">
        <ele>438.0178223</ele>
        <time>2012-01-21T13:40:27Z</time>
      </trkpt>
      <trkpt lat="43.73077" lon="7.10097">
        <ele>428.4046631</ele>
        <time>2012-01-21T13:40:42Z</time>
      </trkpt>
      <trkpt lat="43.73066" lon="7.10095">
        <ele>421.1948242</ele>
        <time>2012-01-21T13:40:54Z</time>
      </trkpt>
      <trkpt lat="43.73046" lon="7.10129">
        <ele>411.581665</ele>
        <time>2012-01-21T13:41:31Z</time>
      </trkpt>
      <trkpt lat="43.72977" lon="7.10191">
        <ele>397.6424561</ele>
        <time>2012-01-21T13:41:51Z</time>
      </trkpt>
      <trkpt lat="43.72958" lon="7.10212">
        <ele>390.4326172</ele>
        <time>2012-01-21T13:42:03Z</time>
      </trkpt>
      <trkpt lat="43.72919" lon="7.10278">
        <ele>386.1066895</ele>
        <time>2012-01-21T13:42:12Z</time>
      </trkpt>
      <trkpt lat="43.72912" lon="7.10284">
        <ele>384.184082</ele>
        <time>2012-01-21T13:42:13Z</time>
      </trkpt>
      <trkpt lat="43.727" lon="7.10384">
        <ele>362.5543213</ele>
        <time>2012-01-21T13:42:43Z</time>
      </trkpt>
      <trkpt lat="43.72692" lon="7.10388">
        <ele>359.6704102</ele>
        <time>2012-01-21T13:42:44Z</time>
      </trkpt>
      <trkpt lat="43.72601" lon="7.1045">
        <ele>351.4991455</ele>
        <time>2012-01-21T13:42:56Z</time>
      </trkpt>
      <trkpt lat="43.72527" lon="7.10551">
        <ele>341.4052734</ele>
        <time>2012-01-21T13:43:08Z</time>
      </trkpt>
      <trkpt lat="43.72465" lon="7.10704">
        <ele>328.4276123</ele>
        <time>2012-01-21T13:43:48Z</time>
      </trkpt>
      <trkpt lat="43.72439" lon="7.10686">
        <ele>328.4276123</ele>
        <time>2012-01-21T13:43:55Z</time>
      </trkpt>
      <trkpt lat="43.72408" lon="7.10596">
        <ele>328.9083252</ele>
        <time>2012-01-21T13:44:07Z</time>
      </trkpt>
      <trkpt lat="43.72393" lon="7.10466">
        <ele>331.1367188</ele>
      </trkpt>
    </trkseg>
  </trk>
</gpx>